Time;durP1;ratioP1;P1;durP2;ratioP2;P2;SDS_P1;SDS_P2;PMS_P1;PMS_P2;Temp;Humidity;BMP_temperature;BMP_pressure;BME280_temperature;BME280_humidity;BME280_pressure;Samples;Min_cycle;Max_cycle;Signal;HPM_P1;HPM_P2
2023/12/03 00:01:44;;;;;;;3.28;3.10;;;2.60;99.90;;;;;;5028624;28;20234;-76
2023/12/03 00:04:11;;;;;;;3.05;2.92;;;2.70;99.90;;;;;;5024008;28;20196;-76
2023/12/03 00:06:38;;;;;;;3.47;3.28;;;2.60;99.90;;;;;;5022891;28;20259;-76
2023/12/03 00:09:06;;;;;;;2.70;2.60;;;2.70;99.90;;;;;;5021365;28;20207;-76
2023/12/03 00:11:34;;;;;;;3.00;2.90;;;2.70;99.90;;;;;;5022500;28;20230;-77
2023/12/03 00:14:01;;;;;;;3.20;3.00;;;2.70;99.90;;;;;;5022932;28;20228;-78
2023/12/03 00:16:28;;;;;;;3.25;3.05;;;2.60;99.90;;;;;;5036184;28;20245;-78
2023/12/03 00:18:56;;;;;;;2.92;2.83;;;2.60;99.90;;;;;;5038527;28;20591;-76
2023/12/03 00:21:23;;;;;;;3.28;3.13;;;2.60;99.90;;;;;;5039104;28;20298;-76
2023/12/03 00:23:50;;;;;;;2.83;2.72;;;2.60;99.90;;;;;;5042309;28;20203;-77
2023/12/03 00:26:18;;;;;;;2.88;2.78;;;2.60;99.90;;;;;;5043879;28;20235;-76
2023/12/03 00:28:45;;;;;;;2.70;2.60;;;2.50;99.90;;;;;;5045296;28;20202;-75
2023/12/03 00:31:12;;;;;;;2.90;2.80;;;2.50;99.90;;;;;;5041512;28;20227;-75
2023/12/03 00:33:39;;;;;;;2.78;2.67;;;2.60;99.90;;;;;;5042530;28;20222;-76
2023/12/03 00:36:07;;;;;;;2.75;2.65;;;2.60;99.90;;;;;;5037672;28;20219;-76
2023/12/03 00:38:34;;;;;;;2.83;2.72;;;2.70;99.90;;;;;;5040845;28;20202;-76
2023/12/03 00:41:01;;;;;;;2.90;2.80;;;2.70;99.90;;;;;;5037399;28;21636;-76
2023/12/03 00:43:29;;;;;;;2.70;2.60;;;2.70;99.90;;;;;;5039361;28;20785;-76
2023/12/03 00:45:57;;;;;;;2.92;2.83;;;2.60;99.90;;;;;;5043052;28;21144;-76
2023/12/03 00:48:24;;;;;;;3.20;3.00;;;2.50;99.90;;;;;;5041849;28;20203;-76
2023/12/03 00:50:52;;;;;;;2.78;2.67;;;2.50;99.90;;;;;;5036599;28;20231;-76
2023/12/03 00:53:19;;;;;;;2.75;2.65;;;2.50;99.90;;;;;;5039692;28;20276;-75
2023/12/03 00:55:46;;;;;;;2.70;2.60;;;2.40;99.90;;;;;;5040329;28;20249;-76
2023/12/03 00:58:13;;;;;;;2.50;2.40;;;2.40;99.90;;;;;;5041334;28;20749;-77
2023/12/03 01:00:41;;;;;;;2.90;2.80;;;2.40;99.90;;;;;;5038809;28;20225;-77
2023/12/03 01:03:08;;;;;;;2.72;2.63;;;2.40;99.90;;;;;;5041824;28;20223;-75
2023/12/03 01:05:35;;;;;;;2.70;2.60;;;2.50;99.90;;;;;;5039037;28;20880;-77
2023/12/03 01:08:03;;;;;;;2.92;2.83;;;2.40;99.90;;;;;;5042549;28;20571;-77
2023/12/03 01:10:31;;;;;;;2.97;2.88;;;2.40;99.90;;;;;;5038810;28;20269;-77
2023/12/03 01:12:58;;;;;;;2.80;2.70;;;2.50;99.90;;;;;;5039464;28;20227;-75
2023/12/03 01:15:25;;;;;;;3.15;3.05;;;2.50;99.90;;;;;;5042313;28;20234;-76
2023/12/03 01:17:53;;;;;;;2.90;2.80;;;2.50;99.90;;;;;;5042145;28;20229;-76
2023/12/03 01:20:21;;;;;;;2.90;2.80;;;2.40;99.90;;;;;;5041964;28;20223;-75
2023/12/03 01:22:48;;;;;;;2.65;2.55;;;2.30;99.90;;;;;;5038440;28;20226;-77
2023/12/03 01:25:15;;;;;;;2.72;2.63;;;2.30;99.90;;;;;;5039163;28;20226;-76
2023/12/03 01:27:42;;;;;;;2.97;2.88;;;2.20;99.90;;;;;;5043878;28;20198;-75
2023/12/03 01:30:10;;;;;;;3.00;2.90;;;2.20;99.90;;;;;;5038722;28;20333;-77
2023/12/03 01:32:37;;;;;;;2.88;2.78;;;2.20;99.90;;;;;;5038980;28;20227;-76
2023/12/03 01:35:06;;;;;;;2.50;2.40;;;2.20;99.90;;;;;;5038632;28;20230;-78
2023/12/03 01:37:33;;;;;;;2.58;2.47;;;2.20;99.90;;;;;;5039003;28;20203;-75
2023/12/03 01:40:00;;;;;;;3.25;3.15;;;2.20;99.90;;;;;;5042231;28;20626;-76
2023/12/03 01:42:27;;;;;;;3.00;2.90;;;2.20;99.90;;;;;;5037538;28;20246;-76
2023/12/03 01:44:54;;;;;;;3.35;3.25;;;2.20;99.90;;;;;;5042296;28;20229;-76
2023/12/03 01:47:22;;;;;;;3.63;3.33;;;2.30;99.90;;;;;;5041730;28;20198;-76
2023/12/03 01:49:50;;;;;;;3.40;3.20;;;2.40;99.90;;;;;;5041273;28;20206;-77
2023/12/03 01:52:19;;;;;;;3.28;3.08;;;2.40;99.90;;;;;;5043129;28;20233;-75
2023/12/03 01:54:46;;;;;;;2.72;2.63;;;2.40;99.90;;;;;;5040291;28;20581;-76
2023/12/03 01:57:14;;;;;;;3.20;3.10;;;2.40;99.90;;;;;;5045651;28;20221;-76
2023/12/03 01:59:42;;;;;;;3.03;2.83;;;2.40;99.90;;;;;;5043818;28;20664;-75
2023/12/03 02:02:09;;;;;;;3.60;3.40;;;2.30;99.90;;;;;;5040571;28;20227;-75
2023/12/03 02:04:36;;;;;;;3.15;2.95;;;2.30;99.90;;;;;;5041105;28;20202;-75
2023/12/03 02:07:03;;;;;;;3.53;3.33;;;2.30;99.90;;;;;;5043304;28;20222;-76
2023/12/03 02:09:32;;;;;;;3.20;3.00;;;2.30;99.90;;;;;;5039793;28;20558;-76
2023/12/03 02:11:59;;;;;;;3.00;2.80;;;2.30;99.90;;;;;;5042001;28;20230;-76
2023/12/03 02:14:26;;;;;;;3.60;3.40;;;2.30;99.90;;;;;;5042286;28;20198;-78
2023/12/03 02:16:53;;;;;;;3.70;3.50;;;2.30;99.90;;;;;;5041274;28;20223;-76
2023/12/03 02:19:20;;;;;;;3.08;2.97;;;2.30;99.90;;;;;;5041099;28;20209;-75
2023/12/03 02:21:47;;;;;;;3.17;3.05;;;2.30;99.90;;;;;;5037140;28;20738;-76
2023/12/03 02:24:16;;;;;;;3.00;2.90;;;2.30;99.90;;;;;;5042771;28;20202;-76
2023/12/03 02:26:43;;;;;;;3.10;3.00;;;2.40;99.90;;;;;;5041246;28;20233;-76
2023/12/03 02:29:10;;;;;;;2.67;2.58;;;2.40;99.90;;;;;;5041739;28;20202;-77
2023/12/03 02:31:37;;;;;;;2.95;2.85;;;2.40;99.90;;;;;;5040686;28;20233;-77
2023/12/03 02:34:08;;;;;;;3.25;3.13;;;2.40;99.90;;;;;;5042888;28;20302;-76
2023/12/03 02:36:35;;;;;;;2.85;2.75;;;2.40;99.90;;;;;;5038644;28;20306;-75
2023/12/03 02:39:02;;;;;;;3.25;3.13;;;2.40;99.90;;;;;;5045823;28;20199;-75
2023/12/03 02:41:31;;;;;;;3.13;3.03;;;2.40;99.90;;;;;;5045325;28;20585;-75
2023/12/03 02:43:58;;;;;;;3.17;3.05;;;2.40;99.90;;;;;;5041349;28;20581;-76
2023/12/03 02:46:25;;;;;;;3.00;2.83;;;2.40;99.90;;;;;;5048990;28;20234;-79
2023/12/03 02:48:52;;;;;;;3.30;3.20;;;2.40;99.90;;;;;;5047040;28;20203;-77
2023/12/03 02:51:19;;;;;;;2.88;2.78;;;2.20;99.90;;;;;;5038076;28;20222;-78
2023/12/03 02:53:47;;;;;;;3.13;3.03;;;2.10;99.90;;;;;;5039809;28;20203;-74
2023/12/03 02:56:14;;;;;;;3.20;3.10;;;2.00;99.90;;;;;;5039118;28;20776;-76
2023/12/03 02:58:42;;;;;;;3.10;3.00;;;2.10;99.90;;;;;;5039199;28;20195;-75
2023/12/03 03:01:10;;;;;;;3.05;2.95;;;2.10;99.90;;;;;;5037697;28;20215;-76
2023/12/03 03:03:37;;;;;;;2.85;2.75;;;2.20;99.90;;;;;;5036681;28;20215;-76
2023/12/03 03:06:04;;;;;;;3.17;3.08;;;2.20;99.90;;;;;;5035614;28;20222;-75
2023/12/03 03:08:31;;;;;;;3.42;3.25;;;2.20;99.90;;;;;;5040275;28;20200;-76
2023/12/03 03:10:58;;;;;;;2.78;2.67;;;2.20;99.90;;;;;;5037147;28;20218;-76
2023/12/03 03:13:26;;;;;;;3.17;3.08;;;2.20;99.90;;;;;;5040190;28;20227;-77
2023/12/03 03:15:54;;;;;;;2.88;2.78;;;2.20;99.90;;;;;;5041030;28;20219;-77
2023/12/03 03:18:22;;;;;;;2.90;2.75;;;2.20;99.90;;;;;;5040220;28;20215;-76
2023/12/03 03:20:49;;;;;;;3.00;2.90;;;2.20;99.90;;;;;;5038940;28;20246;-77
2023/12/03 03:23:16;;;;;;;2.78;2.67;;;2.20;99.90;;;;;;5041253;28;20215;-77
2023/12/03 03:25:43;;;;;;;3.08;2.85;;;2.20;99.90;;;;;;5039215;28;20214;-76
2023/12/03 03:28:10;;;;;;;2.97;2.88;;;2.20;99.90;;;;;;5043347;28;20577;-78
2023/12/03 03:30:37;;;;;;;2.95;2.85;;;2.10;99.90;;;;;;5041756;28;20223;-77
2023/12/03 03:33:05;;;;;;;2.90;2.80;;;2.10;99.90;;;;;;5042649;28;20241;-78
2023/12/03 03:35:33;;;;;;;2.58;2.47;;;2.10;99.90;;;;;;5047353;28;20227;-77
2023/12/03 03:38:00;;;;;;;3.15;3.05;;;2.10;99.90;;;;;;5042338;28;20199;-76
2023/12/03 03:40:27;;;;;;;3.00;2.90;;;2.00;99.90;;;;;;5044245;28;20352;-75
2023/12/03 03:42:54;;;;;;;2.80;2.70;;;2.10;99.90;;;;;;5045007;28;20238;-76
2023/12/03 03:45:21;;;;;;;2.70;2.60;;;2.10;99.90;;;;;;5040580;28;20230;-77
2023/12/03 03:47:48;;;;;;;3.03;2.85;;;2.00;99.90;;;;;;5046595;28;20720;-76
2023/12/03 03:50:17;;;;;;;2.83;2.72;;;2.00;99.90;;;;;;5040353;28;20219;-76
2023/12/03 03:52:44;;;;;;;2.65;2.55;;;2.00;99.90;;;;;;5046407;28;20709;-75
2023/12/03 03:55:11;;;;;;;3.00;2.90;;;2.00;99.90;;;;;;5045607;28;20228;-75
2023/12/03 03:57:38;;;;;;;2.88;2.78;;;2.00;99.90;;;;;;5045330;28;20653;-77
2023/12/03 04:00:06;;;;;;;2.63;2.53;;;2.00;99.90;;;;;;5041560;28;20229;-76
2023/12/03 04:02:33;;;;;;;3.15;3.05;;;1.90;99.90;;;;;;5043635;28;20234;-75
2023/12/03 04:05:00;;;;;;;2.90;2.80;;;1.80;99.90;;;;;;5040814;28;20230;-76
2023/12/03 04:07:29;;;;;;;2.58;2.47;;;1.80;99.90;;;;;;5042482;28;20207;-76
2023/12/03 04:09:56;;;;;;;2.80;2.70;;;1.80;99.90;;;;;;5045097;28;20199;-77
2023/12/03 04:12:23;;;;;;;3.03;2.92;;;1.70;99.90;;;;;;5044447;28;20235;-76
2023/12/03 04:14:51;;;;;;;3.20;3.10;;;1.70;99.90;;;;;;5043550;28;20199;-76
2023/12/03 04:17:18;;;;;;;2.65;2.55;;;1.70;99.90;;;;;;5045005;28;20572;-76
2023/12/03 04:19:45;;;;;;;2.90;2.80;;;1.70;99.90;;;;;;5043359;28;20206;-76
2023/12/03 04:22:12;;;;;;;2.78;2.67;;;1.70;99.90;;;;;;5044076;28;20218;-76
2023/12/03 04:24:40;;;;;;;2.63;2.53;;;1.70;99.90;;;;;;5039164;28;20208;-75
2023/12/03 04:27:07;;;;;;;3.10;2.92;;;1.70;99.90;;;;;;5046545;28;20310;-75
2023/12/03 04:29:34;;;;;;;2.38;2.28;;;1.70;99.90;;;;;;5042227;28;20195;-76
2023/12/03 04:32:01;;;;;;;2.58;2.47;;;1.70;99.90;;;;;;5044022;28;20310;-77
2023/12/03 04:34:28;;;;;;;2.83;2.72;;;1.80;99.90;;;;;;5046625;28;20203;-76
2023/12/03 04:36:55;;;;;;;3.00;2.90;;;1.80;99.90;;;;;;5038261;28;20821;-75
2023/12/03 04:39:22;;;;;;;3.00;2.90;;;1.80;99.90;;;;;;5041792;28;20230;-75
2023/12/03 04:41:50;;;;;;;3.30;3.20;;;1.90;99.90;;;;;;5038651;28;20262;-76
2023/12/03 04:44:18;;;;;;;3.30;3.10;;;1.90;99.90;;;;;;5042486;28;20206;-77
2023/12/03 04:46:45;;;;;;;2.60;2.50;;;1.90;99.90;;;;;;5043233;28;20226;-77
2023/12/03 04:49:12;;;;;;;2.42;2.33;;;1.90;99.90;;;;;;5041667;28;20659;-76
2023/12/03 04:51:39;;;;;;;2.42;2.33;;;1.90;99.90;;;;;;5045666;28;20230;-77
2023/12/03 04:54:06;;;;;;;2.55;2.45;;;1.90;99.90;;;;;;5044173;28;20207;-76
2023/12/03 04:56:33;;;;;;;2.67;2.58;;;1.90;99.90;;;;;;5042601;28;20223;-77
2023/12/03 04:59:01;;;;;;;2.95;2.85;;;1.80;99.90;;;;;;5043343;28;20199;-76
2023/12/03 05:01:28;;;;;;;2.90;2.80;;;1.60;99.90;;;;;;5041893;28;20588;-77
2023/12/03 05:03:55;;;;;;;2.40;2.30;;;1.50;99.90;;;;;;5041334;28;20199;-76
2023/12/03 05:06:22;;;;;;;2.97;2.88;;;1.40;99.90;;;;;;5040627;28;20214;-76
2023/12/03 05:08:49;;;;;;;3.13;3.03;;;1.40;99.90;;;;;;5042673;28;20296;-76
2023/12/03 05:11:16;;;;;;;3.55;3.35;;;1.40;99.90;;;;;;5039502;28;20227;-77
2023/12/03 05:13:44;;;;;;;3.05;2.95;;;1.30;99.90;;;;;;5042061;28;20878;-75
2023/12/03 05:16:12;;;;;;;3.30;3.10;;;1.30;99.90;;;;;;5041368;28;20242;-77
2023/12/03 05:18:39;;;;;;;2.83;2.72;;;1.30;99.90;;;;;;5042856;28;20210;-76
2023/12/03 05:21:08;;;;;;;3.03;2.92;;;1.20;99.90;;;;;;5044094;28;20238;-76
2023/12/03 05:23:35;;;;;;;3.33;3.22;;;1.20;99.90;;;;;;5045754;28;20226;-76
2023/12/03 05:26:02;;;;;;;3.42;3.33;;;1.00;99.90;;;;;;5042019;28;20636;-76
2023/12/03 05:28:29;;;;;;;3.35;3.25;;;0.90;99.90;;;;;;5042380;28;20199;-76
2023/12/03 05:30:56;;;;;;;3.35;3.25;;;0.70;99.90;;;;;;5042245;28;20226;-75
2023/12/03 05:33:25;;;;;;;3.17;3.08;;;0.60;99.90;;;;;;5041391;28;20230;-76
2023/12/03 05:35:52;;;;;;;3.85;3.65;;;0.50;99.90;;;;;;5042605;28;20601;-75
2023/12/03 05:38:19;;;;;;;3.47;3.28;;;0.50;99.90;;;;;;5042063;28;20215;-76
2023/12/03 05:40:46;;;;;;;3.80;3.60;;;0.50;99.90;;;;;;5039247;28;20257;-77
2023/12/03 05:43:14;;;;;;;3.42;3.22;;;0.60;99.90;;;;;;5043328;28;20226;-75
2023/12/03 05:45:41;;;;;;;2.75;2.65;;;0.50;99.90;;;;;;5040940;28;20230;-76
2023/12/03 05:48:08;;;;;;;3.30;3.13;;;0.60;99.90;;;;;;5042536;28;20710;-77
2023/12/03 05:50:37;;;;;;;3.65;3.45;;;0.60;99.90;;;;;;5038872;28;20226;-75
2023/12/03 05:53:04;;;;;;;3.22;3.03;;;0.70;99.90;;;;;;5038037;28;20226;-78
2023/12/03 05:55:31;;;;;;;3.67;3.53;;;0.80;99.90;;;;;;5038788;28;20214;-76
2023/12/03 05:57:58;;;;;;;3.65;3.45;;;0.90;99.90;;;;;;5045051;28;20701;-76
2023/12/03 06:00:25;;;;;;;2.88;2.78;;;0.80;99.90;;;;;;5036941;28;20222;-76
2023/12/03 06:02:53;;;;;;;3.40;3.20;;;0.80;99.90;;;;;;5042824;28;20230;-76
2023/12/03 06:05:20;;;;;;;3.50;3.30;;;0.80;99.90;;;;;;5041506;28;20312;-76
2023/12/03 06:07:48;;;;;;;3.50;3.30;;;0.80;99.90;;;;;;5042519;28;20206;-76
2023/12/03 06:10:14;;;;;;;3.13;3.03;;;0.90;99.90;;;;;;5041689;28;20243;-76
2023/12/03 06:12:41;;;;;;;3.38;3.22;;;0.90;99.90;;;;;;5040508;28;20219;-76
2023/12/03 06:15:09;;;;;;;2.75;2.65;;;0.90;99.90;;;;;;5044391;28;20226;-77
2023/12/03 06:17:36;;;;;;;3.17;3.08;;;0.90;99.90;;;;;;5039908;28;20250;-76
2023/12/03 06:20:04;;;;;;;3.05;2.95;;;0.90;99.90;;;;;;5038185;28;20238;-76
2023/12/03 06:22:31;;;;;;;3.47;3.28;;;0.90;99.90;;;;;;5043058;28;20230;-76
2023/12/03 06:24:59;;;;;;;2.90;2.80;;;0.90;99.90;;;;;;5042065;28;20563;-77
2023/12/03 06:27:26;;;;;;;2.72;2.63;;;0.90;99.90;;;;;;5043129;28;20206;-76
2023/12/03 06:29:53;;;;;;;3.10;3.00;;;0.90;99.90;;;;;;5043209;28;20570;-78
2023/12/03 06:32:20;;;;;;;2.90;2.80;;;0.90;99.90;;;;;;5040844;28;20230;-75
2023/12/03 06:34:47;;;;;;;3.08;2.97;;;0.90;99.90;;;;;;5041062;28;20210;-76
2023/12/03 06:37:14;;;;;;;3.08;2.97;;;0.80;99.90;;;;;;5043868;28;20215;-75
2023/12/03 06:39:41;;;;;;;2.92;2.83;;;0.90;99.90;;;;;;5042545;28;20217;-76
2023/12/03 06:42:10;;;;;;;3.13;3.03;;;0.90;99.90;;;;;;5040582;28;20222;-76
2023/12/03 06:44:37;;;;;;;2.85;2.75;;;0.90;99.90;;;;;;5040072;28;20200;-76
2023/12/03 06:47:05;;;;;;;3.50;3.35;;;0.90;99.90;;;;;;5037798;28;20222;-76
2023/12/03 06:49:32;;;;;;;3.40;3.30;;;0.90;99.90;;;;;;5047285;28;20191;-76
2023/12/03 06:51:59;;;;;;;3.80;3.50;;;0.70;99.90;;;;;;5044771;28;20226;-75
2023/12/03 06:54:26;;;;;;;3.45;3.35;;;0.60;99.90;;;;;;5042611;28;20298;-76
2023/12/03 06:56:53;;;;;;;3.65;3.45;;;0.50;99.90;;;;;;5045230;28;20215;-76
2023/12/03 06:59:21;;;;;;;3.42;3.28;;;0.40;99.90;;;;;;5043719;28;20207;-75
2023/12/03 07:01:52;;;;;;;3.40;3.20;;;0.40;99.90;;;;;;5044216;28;20228;-75
2023/12/03 07:04:19;;;;;;;3.58;3.38;;;0.40;99.90;;;;;;5046298;28;20215;-77
2023/12/03 07:06:46;;;;;;;4.07;3.88;;;0.40;99.90;;;;;;5049211;28;20222;-76
2023/12/03 07:09:14;;;;;;;3.80;3.60;;;0.40;99.90;;;;;;5049728;28;20203;-76
2023/12/03 07:11:41;;;;;;;4.15;3.95;;;0.30;99.90;;;;;;5046401;28;20245;-76
2023/12/03 07:14:08;;;;;;;3.25;3.15;;;0.30;99.90;;;;;;5046012;28;20290;-78
2023/12/03 07:16:37;;;;;;;3.40;3.20;;;0.20;99.90;;;;;;5048907;28;20219;-77
2023/12/03 07:19:14;;;;;;;3.75;3.55;;;0.20;99.90;;;;;;5042746;28;20725;-76
2023/12/03 07:21:57;;;;;;;3.08;2.97;;;0.20;99.90;;;;;;5049594;28;20222;-75
2023/12/03 07:24:52;;;;;;;3.15;2.95;;;0.30;99.90;;;;;;5049034;28;20210;-77
2023/12/03 07:27:42;;;;;;;3.58;3.38;;;0.30;99.90;;;;;;5048016;28;20273;-76
2023/12/03 07:30:35;;;;;;;3.47;3.28;;;0.40;99.90;;;;;;5036001;28;20199;-76
2023/12/03 07:33:16;;;;;;;4.25;4.05;;;0.40;99.90;;;;;;5039250;28;20706;-76
2023/12/03 07:35:43;;;;;;;3.78;3.50;;;0.30;99.90;;;;;;5039649;28;20226;-76
2023/12/03 07:38:11;;;;;;;4.55;4.25;;;0.20;99.90;;;;;;5045853;28;20215;-76
2023/12/03 07:40:38;;;;;;;4.80;4.50;;;0.20;99.90;;;;;;5048642;28;20595;-77
2023/12/03 07:43:05;;;;;;;4.82;4.53;;;0.30;99.90;;;;;;5050394;28;20222;-77
2023/12/03 07:45:32;;;;;;;4.72;4.43;;;0.20;99.90;;;;;;5042183;28;20235;-76
2023/12/03 07:47:59;;;;;;;4.28;3.97;;;0.30;99.90;;;;;;5042726;28;20658;-77
2023/12/03 07:50:27;;;;;;;3.95;3.67;;;0.30;99.90;;;;;;5040022;28;20219;-77
2023/12/03 07:52:54;;;;;;;4.25;3.95;;;0.40;99.90;;;;;;5046630;28;20226;-76
2023/12/03 07:55:21;;;;;;;4.38;4.07;;;0.50;99.90;;;;;;5044415;28;20223;-77
2023/12/03 07:57:49;;;;;;;4.32;4.13;;;0.60;99.90;;;;;;5043110;28;20299;-76
2023/12/03 08:00:17;;;;;;;4.15;3.95;;;0.60;99.90;;;;;;5052776;28;20207;-77
2023/12/03 08:02:44;;;;;;;3.85;3.65;;;0.60;99.90;;;;;;5050023;28;20619;-76
2023/12/03 08:05:11;;;;;;;4.40;4.10;;;0.70;99.90;;;;;;5045591;28;20199;-77
2023/12/03 08:07:40;;;;;;;3.63;3.42;;;0.80;99.90;;;;;;5043366;28;20188;-77
2023/12/03 08:10:08;;;;;;;3.75;3.55;;;1.80;99.90;;;;;;5047367;28;20218;-77
2023/12/03 08:12:35;;;;;;;4.20;4.00;;;3.00;99.90;;;;;;5042226;28;20226;-77
2023/12/03 08:15:02;;;;;;;4.03;3.78;;;4.20;99.90;;;;;;5041122;28;20268;-77
2023/12/03 08:17:29;;;;;;;6.28;5.55;;;5.20;99.90;;;;;;5029751;28;20219;-77
2023/12/03 08:19:56;;;;;;;18.70;12.90;;;5.90;99.90;;;;;;5029047;28;20589;-76
2023/12/03 08:22:23;;;;;;;10.25;8.38;;;6.60;99.90;;;;;;5051405;28;20226;-76
2023/12/03 08:24:52;;;;;;;8.10;7.30;;;7.20;99.90;;;;;;5043706;28;20198;-77
2023/12/03 08:27:19;;;;;;;5.80;5.30;;;7.70;99.90;;;;;;5047465;28;20247;-77
2023/12/03 08:29:46;;;;;;;4.93;4.53;;;8.30;99.90;;;;;;5047151;28;20198;-77
2023/12/03 08:32:13;;;;;;;4.20;3.90;;;8.80;99.90;;;;;;5029660;28;20638;-76
2023/12/03 08:34:40;;;;;;;4.20;3.90;;;9.20;99.90;;;;;;5028788;28;20201;-76
2023/12/03 08:37:07;;;;;;;3.20;3.00;;;9.10;99.90;;;;;;5026022;28;20223;-76
2023/12/03 08:39:35;;;;;;;4.95;4.32;;;9.00;99.90;;;;;;5029243;28;20211;-76
2023/12/03 08:42:04;;;;;;;4.50;4.10;;;9.00;99.90;;;;;;5024629;28;20227;-76
2023/12/03 08:44:32;;;;;;;3.88;3.58;;;9.10;99.90;;;;;;5023917;28;20211;-76
2023/12/03 08:47:00;;;;;;;3.78;3.47;;;9.10;99.90;;;;;;5035305;28;20203;-76
2023/12/03 08:49:27;;;;;;;3.28;2.97;;;9.10;99.90;;;;;;5047360;28;20628;-76
2023/12/03 08:51:54;;;;;;;3.50;3.30;;;9.60;99.90;;;;;;5043393;28;20219;-76
2023/12/03 08:54:21;;;;;;;2.90;2.70;;;9.80;99.90;;;;;;5046073;28;20583;-77
2023/12/03 08:56:48;;;;;;;3.20;3.00;;;9.90;99.90;;;;;;5042771;28;20223;-77
2023/12/03 08:59:19;;;;;;;2.90;2.70;;;9.70;99.90;;;;;;5042233;28;20217;-77
2023/12/03 09:01:46;;;;;;;3.00;2.80;;;9.70;99.90;;;;;;5035286;28;21197;-77
2023/12/03 09:04:13;;;;;;;4.03;3.72;;;10.30;99.90;;;;;;5045213;28;20210;-76
2023/12/03 09:06:40;;;;;;;4.50;4.10;;;11.40;99.90;;;;;;5040584;28;20242;-75
2023/12/03 09:09:08;;;;;;;3.78;3.47;;;12.90;99.90;;;;;;5038989;28;20611;-77
2023/12/03 09:18:10;;;;;;;2.90;2.70;;;17.90;66.70;;;;;;5095558;27;20307;-75
2023/12/03 09:20:37;;;;;;;3.08;2.88;;;18.30;64.80;;;;;;5087315;27;20585;-75
2023/12/03 09:23:04;;;;;;;2.92;2.72;;;19.10;62.50;;;;;;5024701;28;20224;-76
2023/12/03 09:25:31;;;;;;;2.90;2.70;;;19.90;57.80;;;;;;5020506;28;20226;-75
2023/12/03 09:27:59;;;;;;;2.83;2.63;;;20.00;54.90;;;;;;5037321;28;20195;-76
2023/12/03 09:30:26;;;;;;;2.58;2.40;;;20.30;51.80;;;;;;5034455;28;20206;-76
2023/12/03 09:32:53;;;;;;;3.22;3.03;;;20.30;51.50;;;;;;5014526;28;20231;-75
2023/12/03 09:35:21;;;;;;;2.63;2.42;;;20.00;49.50;;;;;;5021680;28;20207;-74
2023/12/03 09:37:49;;;;;;;2.78;2.58;;;19.70;49.30;;;;;;5035609;28;20211;-75
2023/12/03 09:40:16;;;;;;;2.88;2.67;;;19.60;48.50;;;;;;5034660;28;20201;-75
2023/12/03 09:42:47;;;;;;;2.58;2.45;;;18.70;47.30;;;;;;5033852;28;20890;-75
2023/12/03 09:45:17;;;;;;;2.83;2.63;;;17.60;49.50;;;;;;5031169;28;20191;-75
2023/12/03 09:47:49;;;;;;;2.90;2.70;;;16.20;49.50;;;;;;5015739;28;20203;-75
2023/12/03 09:50:16;;;;;;;2.40;2.30;;;14.50;53.00;;;;;;5015823;28;20224;-77
2023/12/03 09:52:52;;;;;;;2.88;2.67;;;13.10;57.10;;;;;;5017194;28;20231;-75
2023/12/03 09:55:21;;;;;;;3.00;2.80;;;12.20;60.60;;;;;;5014313;28;20212;-76
2023/12/03 09:57:52;;;;;;;2.90;2.70;;;11.30;61.70;;;;;;5013139;28;20760;-74
2023/12/03 10:00:21;;;;;;;2.90;2.70;;;10.70;64.30;;;;;;5019922;28;20200;-75
2023/12/03 10:02:50;;;;;;;3.03;2.83;;;10.30;64.90;;;;;;5038111;28;20236;-75
2023/12/03 10:07:59;;;;;;;2.70;2.50;;;9.60;65.10;;;;;;5095607;27;21077;-76
2023/12/03 10:10:30;;;;;;;2.55;2.35;;;9.70;69.30;;;;;;5095221;27;20197;-74
2023/12/03 10:12:58;;;;;;;2.83;2.63;;;9.80;71.00;;;;;;5044883;28;20226;-77
2023/12/03 10:15:25;;;;;;;2.72;2.58;;;10.00;71.30;;;;;;5038543;28;20587;-75
2023/12/03 10:17:53;;;;;;;3.00;2.80;;;10.20;70.80;;;;;;5035768;28;20536;-76
2023/12/03 10:20:27;;;;;;;3.13;2.90;;;10.40;68.60;;;;;;5037161;28;20199;-76
2023/12/03 10:22:58;;;;;;;2.75;2.55;;;10.60;70.90;;;;;;5049815;28;20229;-76
2023/12/03 10:25:29;;;;;;;2.55;2.35;;;10.20;70.00;;;;;;5053820;28;20233;-75
2023/12/03 10:27:58;;;;;;;2.30;2.10;;;10.20;68.70;;;;;;5055891;28;20223;-76
2023/12/03 10:30:25;;;;;;;2.22;2.13;;;10.20;68.60;;;;;;5062272;28;20236;-76
2023/12/03 10:32:52;;;;;;;2.40;2.30;;;10.00;69.30;;;;;;5057286;28;20253;-77
2023/12/03 10:35:21;;;;;;;2.63;2.53;;;10.00;69.80;;;;;;5056286;28;20833;-76
2023/12/03 10:37:48;;;;;;;2.70;2.55;;;10.10;70.70;;;;;;5049203;28;20226;-77
2023/12/03 10:40:18;;;;;;;2.33;2.10;;;10.30;70.20;;;;;;5053420;28;20203;-76
2023/12/03 10:42:45;;;;;;;2.70;2.50;;;10.10;71.00;;;;;;5057535;28;20234;-76
2023/12/03 10:45:14;;;;;;;2.20;2.10;;;10.20;72.00;;;;;;5057262;28;20225;-76
2023/12/03 10:47:42;;;;;;;2.40;2.22;;;10.50;71.20;;;;;;5052136;28;20226;-76
2023/12/03 10:50:11;;;;;;;2.58;2.42;;;10.90;69.50;;;;;;5059422;28;20202;-76
2023/12/03 10:52:39;;;;;;;3.17;2.97;;;10.90;69.90;;;;;;5061114;28;20517;-76
2023/12/03 10:55:08;;;;;;;2.90;2.70;;;10.80;71.60;;;;;;5056998;28;20209;-77
2023/12/03 10:57:47;;;;;;;2.67;2.58;;;11.00;73.70;;;;;;5058213;28;20583;-79
2023/12/03 11:00:20;;;;;;;3.92;2.60;;;11.40;72.70;;;;;;5060552;28;20206;-77
2023/12/03 11:02:52;;;;;;;2.67;2.47;;;11.60;67.60;;;;;;5057155;28;20241;-77
2023/12/03 11:05:27;;;;;;;2.67;2.42;;;11.60;66.30;;;;;;5055706;28;20201;-77
2023/12/03 11:07:55;;;;;;;2.60;2.50;;;11.20;68.70;;;;;;5059431;28;20236;-76
2023/12/03 11:10:22;;;;;;;2.40;2.30;;;11.10;69.90;;;;;;5056735;28;20206;-78
2023/12/03 11:12:51;;;;;;;2.60;2.50;;;11.00;71.70;;;;;;5069762;28;20203;-78
2023/12/03 11:15:19;;;;;;;2.38;2.20;;;11.10;70.50;;;;;;5058834;28;20199;-76
2023/12/03 11:17:47;;;;;;;2.70;2.60;;;11.30;71.30;;;;;;5050881;28;20249;-77
2023/12/03 11:20:18;;;;;;;2.40;2.30;;;11.40;69.10;;;;;;5040398;28;20210;-77
2023/12/03 11:23:05;;;;;;;2.40;2.30;;;11.20;69.30;;;;;;5042838;28;20233;-77
2023/12/03 11:25:35;;;;;;;2.55;2.45;;;11.20;69.70;;;;;;5047002;28;20194;-76
2023/12/03 11:28:04;;;;;;;2.40;2.30;;;11.40;67.60;;;;;;5042727;28;20678;-78
2023/12/03 11:30:39;;;;;;;2.35;2.20;;;11.10;66.10;;;;;;5045963;28;20786;-76
2023/12/03 11:33:12;;;;;;;2.40;2.30;;;10.80;65.80;;;;;;5040017;28;20651;-76
2023/12/03 11:35:42;;;;;;;2.33;2.22;;;10.50;65.80;;;;;;5048568;28;20203;-76
2023/12/03 11:38:15;;;;;;;2.10;2.00;;;10.60;69.70;;;;;;5045301;28;20752;-76
2023/12/03 11:40:42;;;;;;;2.30;2.20;;;10.70;68.80;;;;;;5043635;28;20206;-77
2023/12/03 11:43:24;;;;;;;2.67;2.47;;;10.50;67.20;;;;;;5034493;28;20584;-76
2023/12/03 11:45:51;;;;;;;2.72;2.53;;;10.40;69.60;;;;;;5034258;28;20219;-78
2023/12/03 11:48:19;;;;;;;2.70;2.50;;;10.20;68.20;;;;;;5038169;28;20306;-76
2023/12/03 11:50:48;;;;;;;2.05;1.95;;;10.30;69.90;;;;;;5032798;28;20667;-78
2023/12/03 11:53:16;;;;;;;2.88;2.45;;;10.50;68.50;;;;;;5018278;28;20216;-77
2023/12/03 11:55:46;;;;;;;2.75;2.55;;;10.50;69.10;;;;;;5018449;28;20227;-76
2023/12/03 11:58:14;;;;;;;2.90;2.70;;;10.70;65.80;;;;;;5040609;28;20195;-77
2023/12/03 12:00:45;;;;;;;2.35;2.22;;;10.60;67.20;;;;;;5036959;28;20800;-78
2023/12/03 12:03:12;;;;;;;2.47;2.30;;;10.50;67.90;;;;;;5041462;28;21041;-77
2023/12/03 12:05:46;;;;;;;2.40;2.30;;;10.60;68.50;;;;;;5042411;28;20206;-77
2023/12/03 12:08:19;;;;;;;2.55;2.45;;;10.50;66.60;;;;;;5043585;28;20210;-77
2023/12/03 12:10:46;;;;;;;2.30;2.20;;;10.40;67.20;;;;;;5054173;28;20199;-78
2023/12/03 12:13:13;;;;;;;2.70;2.60;;;10.30;67.80;;;;;;5024302;28;20848;-77
2023/12/03 12:15:42;;;;;;;2.47;2.38;;;10.20;68.80;;;;;;5021199;28;20203;-77
2023/12/03 12:18:10;;;;;;;2.78;2.58;;;10.10;69.00;;;;;;5035423;28;20362;-76
2023/12/03 12:20:38;;;;;;;2.50;2.40;;;10.10;68.90;;;;;;5037116;28;20214;-77
2023/12/03 12:23:05;;;;;;;2.33;2.22;;;10.00;70.60;;;;;;5040378;28;20279;-77
2023/12/03 12:25:32;;;;;;;2.42;2.33;;;9.90;71.30;;;;;;5043829;28;20210;-77
2023/12/03 12:27:59;;;;;;;2.30;2.20;;;10.00;74.00;;;;;;5039901;28;20246;-78
2023/12/03 12:30:29;;;;;;;2.30;2.20;;;10.40;74.30;;;;;;5035386;28;20876;-77
2023/12/03 12:32:58;;;;;;;2.10;2.00;;;10.70;70.20;;;;;;5037833;28;20226;-76
2023/12/03 12:35:26;;;;;;;2.65;2.55;;;10.70;68.80;;;;;;5041297;28;20187;-77
2023/12/03 12:38:01;;;;;;;2.50;2.40;;;10.70;69.90;;;;;;5038277;28;20216;-78
2023/12/03 12:40:30;;;;;;;2.38;2.28;;;10.70;69.10;;;;;;5041622;28;20310;-77
2023/12/03 12:43:05;;;;;;;2.67;2.47;;;10.60;69.10;;;;;;5037438;28;20214;-77
2023/12/03 12:45:33;;;;;;;2.75;2.55;;;10.50;70.40;;;;;;5032963;28;20277;-77
2023/12/03 12:48:01;;;;;;;2.60;2.50;;;10.40;70.10;;;;;;5043609;28;20219;-77
2023/12/03 12:50:36;;;;;;;2.55;2.45;;;10.40;68.90;;;;;;5041803;28;20223;-77
2023/12/03 12:53:03;;;;;;;2.20;2.10;;;10.30;69.20;;;;;;5037967;28;20218;-77
2023/12/03 12:55:32;;;;;;;2.33;2.17;;;10.00;69.80;;;;;;5036970;28;20195;-77
2023/12/03 12:58:00;;;;;;;2.20;2.10;;;9.80;70.10;;;;;;5038904;28;20214;-77
2023/12/03 13:00:28;;;;;;;2.38;2.28;;;9.60;70.90;;;;;;5038277;28;20206;-75
2023/12/03 13:02:56;;;;;;;2.45;2.35;;;9.60;71.90;;;;;;5036068;28;20219;-78
2023/12/03 13:05:25;;;;;;;2.47;2.38;;;9.50;72.10;;;;;;5041725;28;20245;-77
2023/12/03 13:07:53;;;;;;;2.50;2.40;;;9.30;72.10;;;;;;5035866;28;20234;-77
2023/12/03 13:10:20;;;;;;;2.35;2.22;;;9.30;72.90;;;;;;5059768;28;20199;-76